< < Back
Terminal Aerodrome Forecast


Current Version              Previous Versions:   1  2  3  4  5  6  7  8  9  

Terminal Aerodrome Forecast

815
FTUS42 KTAE 220000 AAA
TAFVLD
TAF AMD
KVLD 220028Z 2200/2224 00000KT P6SM SKC
     FM221400 28004KT P6SM SCT040=



Latest METAR

919
SAUS70 KWBC 230400 RRN
MTRVLD
METAR KVLD 230353Z AUTO 36007KT 10SM FEW034 23/17 A3003 RMK AO2 SLP176
T02280172


USA.gov is the U.S. government's official web portal to all federal, state and local government web resources and services.